Time;durP1;ratioP1;P1;durP2;ratioP2;P2;SDS_P1;SDS_P2;PMS_P1;PMS_P2;Temp;Humidity;BMP_temperature;BMP_pressure;BME280_temperature;BME280_humidity;BME280_pressure;Samples;Min_cycle;Max_cycle;Signal;HPM_P1;HPM_P2
2023/06/24 00:00:59;;;;;;;7.07;4.15;;;18.20;99.90;;;;;;4216869;28;20051;-84
2023/06/24 00:03:02;;;;;;;9.38;4.63;;;18.20;99.90;;;;;;4215887;28;20048;-84
2023/06/24 00:05:05;;;;;;;8.65;5.13;;;18.10;99.90;;;;;;4217069;28;20457;-84
2023/06/24 00:07:07;;;;;;;6.50;4.07;;;18.10;99.90;;;;;;4196561;28;20074;-84
2023/06/24 00:09:07;;;;;;;8.15;4.68;;;18.10;99.90;;;;;;4216115;28;20433;-84
2023/06/24 00:11:09;;;;;;;9.93;4.53;;;18.10;99.90;;;;;;4217194;28;20113;-84
2023/06/24 00:13:10;;;;;;;8.88;4.35;;;18.10;99.90;;;;;;4233068;28;20048;-84
2023/06/24 00:15:11;;;;;;;7.10;4.70;;;18.10;99.90;;;;;;4216348;28;20047;-84
2023/06/24 00:17:13;;;;;;;9.27;5.30;;;18.10;99.90;;;;;;4217149;28;20076;-84
2023/06/24 00:19:18;;;;;;;7.10;4.18;;;18.00;99.90;;;;;;4215619;28;20081;-84
2023/06/24 00:21:19;;;;;;;10.30;5.88;;;18.00;99.90;;;;;;4215590;28;20071;-84
2023/06/24 00:23:26;;;;;;;9.70;5.53;;;18.00;99.90;;;;;;4214503;28;20051;-84
2023/06/24 00:25:27;;;;;;;9.57;4.53;;;18.00;99.90;;;;;;4212231;28;20051;-83
2023/06/24 00:27:27;;;;;;;7.45;4.50;;;18.00;99.90;;;;;;4216195;28;20036;-83
2023/06/24 00:29:28;;;;;;;8.05;4.72;;;17.90;99.90;;;;;;4215962;28;20040;-84
2023/06/24 00:31:29;;;;;;;9.63;5.45;;;17.90;99.90;;;;;;4216346;28;20104;-83
2023/06/24 00:33:32;;;;;;;10.45;4.88;;;17.90;99.90;;;;;;4215489;28;20079;-84
2023/06/24 00:35:34;;;;;;;8.57;4.78;;;17.90;99.90;;;;;;4215919;28;20051;-83
2023/06/24 00:37:35;;;;;;;8.63;5.20;;;17.80;99.90;;;;;;4215689;28;20131;-83
2023/06/24 00:39:36;;;;;;;8.73;5.18;;;17.80;99.90;;;;;;4210790;28;20419;-83
2023/06/24 00:41:38;;;;;;;7.68;4.55;;;17.80;99.90;;;;;;4217684;28;20074;-83
2023/06/24 00:43:39;;;;;;;7.85;4.75;;;17.80;99.90;;;;;;4216927;28;20044;-83
2023/06/24 00:45:40;;;;;;;9.73;4.95;;;17.70;99.90;;;;;;4216855;28;20656;-84
2023/06/24 00:47:41;;;;;;;6.80;4.65;;;17.70;99.90;;;;;;4231754;28;20126;-83
2023/06/24 00:49:45;;;;;;;8.25;5.28;;;17.70;99.90;;;;;;4198610;28;20115;-84
2023/06/24 00:51:50;;;;;;;8.75;4.95;;;17.60;99.90;;;;;;4216846;28;20048;-84
2023/06/24 00:53:51;;;;;;;7.70;4.85;;;17.60;99.90;;;;;;4216419;28;20044;-83
2023/06/24 00:55:55;;;;;;;7.88;4.60;;;17.60;99.90;;;;;;4214388;28;20039;-84
2023/06/24 00:57:57;;;;;;;7.35;4.43;;;17.60;99.90;;;;;;4198425;28;20127;-83
2023/06/24 00:59:59;;;;;;;8.45;5.55;;;17.50;99.90;;;;;;4181713;28;20049;-83
2023/06/24 01:02:01;;;;;;;7.43;4.90;;;17.50;99.90;;;;;;4199189;28;20032;-83
2023/06/24 01:04:03;;;;;;;8.75;4.57;;;17.50;99.90;;;;;;4199200;28;20091;-85
2023/06/24 01:06:04;;;;;;;8.18;4.75;;;17.50;99.90;;;;;;4198885;28;20041;-85
2023/06/24 01:08:04;;;;;;;7.55;5.38;;;17.50;99.90;;;;;;4198762;28;20037;-84
2023/06/24 01:10:07;;;;;;;9.07;5.10;;;17.50;99.90;;;;;;4199053;28;20249;-85
2023/06/24 01:12:08;;;;;;;10.35;5.28;;;17.40;99.90;;;;;;4213641;28;20380;-85
2023/06/24 01:14:09;;;;;;;7.63;4.75;;;17.40;99.90;;;;;;4213656;28;20048;-85
2023/06/24 01:16:15;;;;;;;9.13;6.05;;;17.40;99.90;;;;;;4215434;28;20134;-84
2023/06/24 01:18:29;;;;;;;9.27;5.38;;;17.40;99.90;;;;;;4216151;28;20044;-85
2023/06/24 01:20:55;;;;;;;9.18;6.00;;;17.40;99.90;;;;;;4214892;28;20055;-84
2023/06/24 01:23:02;;;;;;;10.93;4.93;;;17.40;99.90;;;;;;4216439;28;20086;-84
2023/06/24 01:25:41;;;;;;;8.32;5.53;;;17.40;99.90;;;;;;4215596;28;20040;-84
2023/06/24 01:28:13;;;;;;;;;;;17.40;99.90;;;;;;4203846;28;20072;-85
2023/06/24 01:30:21;;;;;;;9.05;5.63;;;17.40;99.90;;;;;;4217283;28;20325;-85
2023/06/24 01:32:29;;;;;;;9.88;5.63;;;17.40;99.90;;;;;;4212108;28;20048;-85
2023/06/24 01:34:50;;;;;;;10.98;6.13;;;17.30;99.90;;;;;;4216829;28;20132;-85
2023/06/24 01:37:11;;;;;;;10.93;5.60;;;17.40;99.90;;;;;;4219277;28;20431;-85
2023/06/24 01:39:16;;;;;;;8.35;5.43;;;17.40;99.90;;;;;;4218041;28;20032;-84
2023/06/24 01:41:22;;;;;;;8.85;5.25;;;17.40;99.90;;;;;;4220709;28;20052;-85
2023/06/24 01:43:25;;;;;;;11.30;5.40;;;17.30;99.90;;;;;;4219899;28;20040;-84
2023/06/24 01:45:36;;;;;;;9.45;5.20;;;17.30;99.90;;;;;;4219505;28;20052;-84
2023/06/24 01:47:39;;;;;;;12.23;5.88;;;17.30;99.90;;;;;;4213193;28;20041;-84
2023/06/24 01:49:42;;;;;;;12.38;5.13;;;17.30;99.90;;;;;;4217463;28;20082;-85
2023/06/24 01:51:46;;;;;;;10.93;6.55;;;17.30;99.90;;;;;;4217385;28;20508;-83
2023/06/24 01:53:54;;;;;;;11.77;6.57;;;17.30;99.90;;;;;;4233978;28;20065;-84
2023/06/24 01:55:57;;;;;;;10.48;5.68;;;17.20;99.90;;;;;;4218773;28;20040;-84
2023/06/24 01:57:59;;;;;;;10.30;6.20;;;17.20;99.90;;;;;;4218415;28;20051;-85
2023/06/24 02:00:02;;;;;;;12.52;7.05;;;17.10;99.90;;;;;;4218401;28;20040;-84
2023/06/24 02:02:05;;;;;;;12.10;6.30;;;17.10;99.90;;;;;;4218055;28;20127;-85
2023/06/24 02:04:09;;;;;;;10.73;6.97;;;17.10;99.90;;;;;;4212910;28;20119;-85
2023/06/24 02:06:13;;;;;;;10.02;6.75;;;17.10;99.90;;;;;;4219093;28;20048;-84
2023/06/24 02:08:15;;;;;;;12.07;6.75;;;17.10;99.90;;;;;;4219412;28;20492;-85
2023/06/24 02:10:18;;;;;;;17.65;8.40;;;17.00;99.90;;;;;;4218449;28;20056;-84
2023/06/24 02:12:20;;;;;;;12.85;6.80;;;17.00;99.90;;;;;;4219482;28;20048;-84
2023/06/24 02:14:21;;;;;;;12.93;7.13;;;17.00;99.90;;;;;;4217980;28;20040;-84
2023/06/24 02:16:24;;;;;;;10.45;6.95;;;17.00;99.90;;;;;;4219285;28;20048;-85
2023/06/24 02:18:27;;;;;;;15.07;8.43;;;17.00;99.90;;;;;;4219015;28;20044;-83
2023/06/24 02:20:29;;;;;;;16.52;8.40;;;17.00;99.90;;;;;;4218222;28;20063;-84
2023/06/24 02:22:30;;;;;;;12.90;7.65;;;16.90;99.90;;;;;;4210511;28;20485;-84
2023/06/24 02:24:31;;;;;;;14.38;8.75;;;17.00;99.90;;;;;;4199360;28;20052;-84
2023/06/24 02:26:33;;;;;;;14.43;8.63;;;16.90;99.90;;;;;;4200858;28;20040;-84
2023/06/24 02:28:34;;;;;;;16.98;8.35;;;16.80;99.90;;;;;;4199154;28;20174;-84
2023/06/24 02:30:38;;;;;;;26.02;9.57;;;16.90;99.90;;;;;;4201425;28;20048;-84
2023/06/24 02:32:39;;;;;;;14.60;9.00;;;16.90;99.90;;;;;;4199816;28;20040;-85
2023/06/24 02:34:41;;;;;;;17.45;9.63;;;16.80;99.90;;;;;;4200721;28;20037;-85
2023/06/24 02:36:42;;;;;;;16.98;8.70;;;16.80;99.90;;;;;;4201218;28;20098;-85
2023/06/24 02:38:43;;;;;;;17.55;9.45;;;16.70;99.90;;;;;;4201736;28;20044;-85
2023/06/24 02:40:45;;;;;;;15.77;9.05;;;16.70;99.90;;;;;;4201090;28;20044;-85
2023/06/24 02:42:46;;;;;;;16.52;8.80;;;16.70;99.90;;;;;;4198489;28;20131;-84
2023/06/24 02:44:47;;;;;;;16.40;9.65;;;16.70;99.90;;;;;;4201122;28;20068;-84
2023/06/24 02:46:50;;;;;;;15.07;9.18;;;16.70;99.90;;;;;;4215435;28;20066;-85
2023/06/24 02:48:52;;;;;;;15.35;8.50;;;16.60;99.90;;;;;;4199767;28;20076;-85
2023/06/24 02:50:53;;;;;;;15.43;8.60;;;17.10;99.90;;;;;;4201103;28;20056;-85
2023/06/24 02:52:55;;;;;;;14.35;8.82;;;16.60;99.90;;;;;;4200282;28;20056;-85
2023/06/24 02:54:58;;;;;;;15.27;8.88;;;16.60;99.90;;;;;;4217823;28;20052;-86
2023/06/24 02:56:59;;;;;;;17.95;9.10;;;16.60;99.90;;;;;;4223546;28;20407;-86
2023/06/24 02:59:00;;;;;;;15.40;8.13;;;16.60;99.90;;;;;;4233027;28;20058;-84
2023/06/24 03:01:03;;;;;;;17.08;8.73;;;16.60;99.90;;;;;;4198791;28;20138;-85
2023/06/24 03:03:05;;;;;;;19.50;8.50;;;16.60;99.90;;;;;;4217602;28;20909;-85
2023/06/24 03:05:07;;;;;;;16.25;9.30;;;16.30;99.90;;;;;;4218552;28;20055;-84
2023/06/24 03:07:10;;;;;;;20.15;9.18;;;16.60;99.90;;;;;;4215920;28;20129;-85
2023/06/24 03:09:11;;;;;;;18.48;9.45;;;16.50;99.90;;;;;;4218041;28;20105;-85
2023/06/24 03:11:14;;;;;;;15.27;9.20;;;15.70;99.90;;;;;;4217580;28;20137;-85
2023/06/24 03:13:14;;;;;;;18.05;9.10;;;16.60;99.90;;;;;;4217469;28;20070;-84
2023/06/24 03:15:15;;;;;;;16.05;9.85;;;16.60;99.90;;;;;;4209631;28;20044;-85
2023/06/24 03:17:19;;;;;;;19.13;10.15;;;16.60;99.90;;;;;;4217907;28;20055;-85
2023/06/24 03:19:20;;;;;;;20.58;10.18;;;16.60;99.90;;;;;;4217115;28;20036;-85
2023/06/24 03:21:23;;;;;;;17.27;10.63;;;16.50;99.90;;;;;;4216934;28;20050;-85
2023/06/24 03:23:24;;;;;;;19.27;11.00;;;16.50;99.90;;;;;;4216859;28;20100;-85
2023/06/24 03:25:24;;;;;;;17.73;10.32;;;16.50;99.90;;;;;;4217727;28;20385;-84
2023/06/24 03:27:25;;;;;;;19.38;9.18;;;16.50;99.90;;;;;;4218549;28;20101;-85
2023/06/24 03:29:28;;;;;;;14.00;9.02;;;16.50;99.90;;;;;;4216217;28;20125;-85
2023/06/24 03:31:30;;;;;;;19.67;9.27;;;16.40;99.90;;;;;;4216900;28;20888;-85
2023/06/24 03:33:30;;;;;;;17.15;9.65;;;16.40;99.90;;;;;;4210841;28;20036;-85
2023/06/24 03:35:32;;;;;;;17.73;9.93;;;16.40;99.90;;;;;;4198674;28;20437;-85
2023/06/24 03:37:33;;;;;;;13.13;8.88;;;16.40;99.90;;;;;;4232568;28;20051;-85
2023/06/24 03:39:34;;;;;;;14.35;8.40;;;16.30;99.90;;;;;;4215291;28;20052;-85
2023/06/24 03:41:34;;;;;;;17.42;8.90;;;16.30;99.90;;;;;;4218092;28;20036;-85
2023/06/24 03:43:35;;;;;;;14.88;8.55;;;16.30;99.90;;;;;;4221528;28;20061;-84
2023/06/24 03:45:36;;;;;;;15.88;7.75;;;16.30;99.90;;;;;;4219328;28;20101;-84
2023/06/24 03:47:38;;;;;;;16.80;8.88;;;16.30;99.90;;;;;;4220672;28;20044;-84
2023/06/24 03:49:39;;;;;;;14.93;8.27;;;16.20;99.90;;;;;;4205605;28;20056;-85
2023/06/24 03:51:40;;;;;;;14.73;8.57;;;16.30;99.90;;;;;;4220216;28;20040;-84
2023/06/24 03:53:40;;;;;;;15.07;8.52;;;16.20;99.90;;;;;;4218559;28;20480;-84
2023/06/24 03:55:41;;;;;;;14.10;7.88;;;16.30;99.90;;;;;;4218537;28;20051;-84
2023/06/24 03:57:42;;;;;;;16.55;8.20;;;16.20;99.90;;;;;;4217787;28;20036;-84
2023/06/24 03:59:43;;;;;;;17.55;8.35;;;16.20;99.90;;;;;;4218416;28;20144;-84
2023/06/24 04:01:43;;;;;;;13.80;8.07;;;16.30;99.90;;;;;;4216724;28;20512;-85
2023/06/24 04:03:45;;;;;;;13.98;7.88;;;15.70;99.90;;;;;;4217332;28;20044;-85
2023/06/24 04:05:46;;;;;;;14.88;8.13;;;16.20;99.90;;;;;;4216276;28;20051;-85
2023/06/24 04:07:47;;;;;;;14.68;7.43;;;16.20;99.90;;;;;;4210494;28;20047;-85
2023/06/24 04:09:48;;;;;;;14.05;7.45;;;16.20;99.90;;;;;;4199417;28;20040;-84
2023/06/24 04:11:51;;;;;;;12.88;8.02;;;16.20;99.90;;;;;;4198753;28;20485;-85
2023/06/24 04:13:52;;;;;;;14.13;8.13;;;16.20;99.90;;;;;;4199152;28;20484;-85
2023/06/24 04:15:53;;;;;;;12.20;7.05;;;16.30;99.90;;;;;;4199203;28;20048;-86
2023/06/24 04:17:54;;;;;;;14.57;7.50;;;16.20;99.90;;;;;;4202325;28;20045;-89
2023/06/24 04:20:03;;;;;;;15.48;7.30;;;16.20;99.90;;;;;;4202293;28;20044;-90
2023/06/24 04:22:05;;;;;;;;;;;16.30;99.90;;;;;;4208507;28;20958;-89
2023/06/24 04:24:07;;;;;;;13.05;7.28;;;16.30;99.90;;;;;;4215335;28;19924;-89
2023/06/24 04:26:15;;;;;;;11.77;6.68;;;16.30;99.90;;;;;;4203408;28;20110;-90
2023/06/24 04:28:16;;;;;;;11.38;6.18;;;16.30;99.90;;;;;;4204180;28;20439;-90
2023/06/24 04:30:18;;;;;;;17.60;6.53;;;16.40;99.90;;;;;;4202504;28;20041;-89
2023/06/24 04:32:20;;;;;;;12.27;6.32;;;16.40;99.90;;;;;;4202664;28;20067;-88
2023/06/24 04:34:30;;;;;;;13.05;6.40;;;16.40;99.90;;;;;;4218934;28;20111;-89
2023/06/24 04:36:32;;;;;;;12.52;6.20;;;16.50;99.90;;;;;;4207676;28;20051;-90
2023/06/24 04:38:36;;;;;;;10.23;6.07;;;16.50;99.90;;;;;;4220430;28;20075;-89
2023/06/24 04:40:44;;;;;;;9.50;6.03;;;16.50;99.90;;;;;;4214381;28;20037;-89
2023/06/24 04:42:45;;;;;;;9.75;6.47;;;16.50;99.90;;;;;;4203131;28;20458;-90
2023/06/24 04:44:53;;;;;;;16.52;7.43;;;16.60;99.90;;;;;;4204205;28;20052;-89
2023/06/24 04:46:55;;;;;;;12.40;6.60;;;16.70;99.90;;;;;;4201491;28;20048;-89
2023/06/24 04:48:59;;;;;;;10.27;5.68;;;16.70;99.90;;;;;;4202761;28;20058;-88
2023/06/24 04:50:59;;;;;;;10.50;6.32;;;16.80;99.90;;;;;;4200692;28;20044;-88
2023/06/24 04:53:01;;;;;;;11.45;6.15;;;16.80;99.90;;;;;;4201995;28;20080;-89
2023/06/24 04:55:03;;;;;;;9.45;5.35;;;16.90;99.90;;;;;;4202756;28;20052;-89
2023/06/24 04:57:09;;;;;;;10.65;5.57;;;16.90;99.90;;;;;;4203420;28;20549;-89
2023/06/24 04:59:11;;;;;;;9.25;5.50;;;16.90;99.90;;;;;;4208856;28;20040;-89
2023/06/24 05:01:17;;;;;;;11.50;6.20;;;16.90;99.90;;;;;;4208198;28;20063;-89
2023/06/24 05:03:17;;;;;;;12.82;6.00;;;17.00;99.90;;;;;;4188077;28;20087;-89
2023/06/24 05:05:25;;;;;;;9.18;6.00;;;17.00;99.90;;;;;;4204622;28;20106;-89
2023/06/24 05:07:28;;;;;;;13.82;6.68;;;17.10;99.90;;;;;;4204834;28;20424;-89
2023/06/24 05:09:33;;;;;;;11.80;5.97;;;17.10;99.90;;;;;;4208431;28;20528;-90
2023/06/24 05:11:34;;;;;;;11.85;7.20;;;17.20;99.90;;;;;;4208903;28;20051;-90
2023/06/24 05:13:37;;;;;;;13.90;6.32;;;17.20;99.90;;;;;;4223839;28;20040;-89
2023/06/24 05:15:37;;;;;;;10.63;6.13;;;17.40;99.90;;;;;;4208842;28;20051;-90
2023/06/24 05:17:39;;;;;;;9.13;6.45;;;17.40;99.90;;;;;;4206095;28;20041;-89
2023/06/24 05:19:41;;;;;;;10.25;6.57;;;17.40;99.90;;;;;;4205345;28;20036;-88
2023/06/24 05:21:43;;;;;;;10.10;6.35;;;17.40;99.90;;;;;;4206477;28;20045;-88
2023/06/24 05:23:44;;;;;;;10.30;6.38;;;17.60;99.90;;;;;;4205589;28;20477;-89
2023/06/24 05:25:47;;;;;;;12.95;7.43;;;17.60;99.90;;;;;;4204578;28;20040;-89
2023/06/24 05:27:48;;;;;;;10.20;6.43;;;17.70;99.90;;;;;;4208829;28;20459;-89
2023/06/24 05:29:49;;;;;;;10.00;6.45;;;17.70;99.90;;;;;;4203139;28;20040;-89
2023/06/24 05:31:49;;;;;;;13.18;6.65;;;17.90;99.90;;;;;;4204350;28;20055;-90
2023/06/24 05:33:51;;;;;;;13.77;7.32;;;17.90;99.90;;;;;;4204492;28;20037;-90
2023/06/24 05:35:53;;;;;;;9.68;6.18;;;18.00;99.90;;;;;;4207844;28;20100;-89
2023/06/24 05:37:54;;;;;;;10.73;6.30;;;18.00;99.90;;;;;;4216741;28;20048;-89
2023/06/24 05:39:56;;;;;;;11.20;6.13;;;18.10;99.90;;;;;;4222250;28;20073;-88
2023/06/24 05:41:59;;;;;;;13.70;7.53;;;18.20;99.90;;;;;;4225150;28;20138;-89
2023/06/24 05:44:08;;;;;;;11.27;6.45;;;18.50;99.90;;;;;;4219851;28;20097;-88
2023/06/24 05:46:14;;;;;;;;;;;18.30;99.90;;;;;;4216585;28;20043;-87
2023/06/24 05:48:17;;;;;;;10.38;5.72;;;18.50;99.90;;;;;;4207890;28;19924;-88
2023/06/24 05:50:24;;;;;;;11.93;5.65;;;18.70;99.90;;;;;;4207132;28;20040;-87
2023/06/24 05:52:25;;;;;;;8.77;5.47;;;18.60;99.90;;;;;;4205544;28;20053;-88
2023/06/24 05:54:26;;;;;;;12.52;5.40;;;18.70;99.90;;;;;;4208178;28;20044;-88
2023/06/24 05:56:27;;;;;;;8.57;5.68;;;18.70;99.90;;;;;;4207171;28;20045;-88
2023/06/24 05:58:28;;;;;;;9.13;5.70;;;18.70;99.90;;;;;;4206568;28;20040;-87
2023/06/24 06:00:29;;;;;;;9.13;5.72;;;18.80;99.90;;;;;;4206531;28;20045;-88
2023/06/24 06:02:38;;;;;;;15.70;6.25;;;18.80;99.90;;;;;;4206011;28;20481;-88
2023/06/24 06:04:39;;;;;;;8.10;5.55;;;19.00;99.90;;;;;;4206571;28;20048;-89
2023/06/24 06:06:41;;;;;;;7.38;5.05;;;19.10;99.90;;;;;;4207314;28;20064;-87
2023/06/24 06:08:44;;;;;;;14.57;5.85;;;19.20;99.90;;;;;;4207323;28;20049;-88
2023/06/24 06:10:47;;;;;;;9.10;5.45;;;19.30;99.90;;;;;;4205907;28;20707;-88
2023/06/24 06:12:48;;;;;;;8.25;5.00;;;19.50;99.90;;;;;;4210727;28;20040;-87
2023/06/24 06:14:55;;;;;;;9.60;5.18;;;19.60;99.90;;;;;;4205091;28;20398;-89
2023/06/24 06:17:02;;;;;;;9.82;4.72;;;19.70;99.90;;;;;;4204473;28;20045;-88
2023/06/24 06:19:04;;;;;;;9.70;5.30;;;19.90;99.90;;;;;;4205225;28;20048;-88
2023/06/24 06:21:05;;;;;;;10.35;4.85;;;20.00;99.90;;;;;;4203427;28;20045;-88
2023/06/24 06:23:07;;;;;;;8.55;4.88;;;20.00;99.90;;;;;;4203935;28;20468;-88
2023/06/24 06:25:12;;;;;;;10.35;5.57;;;20.00;99.90;;;;;;4204048;28;20024;-88
2023/06/24 06:27:13;;;;;;;8.88;5.15;;;20.10;99.90;;;;;;4202798;28;20066;-88
2023/06/24 06:29:15;;;;;;;9.40;5.18;;;20.10;99.90;;;;;;4203846;28;20048;-88
2023/06/24 06:31:16;;;;;;;10.18;4.95;;;20.20;99.90;;;;;;4206792;28;20048;-88
2023/06/24 06:33:17;;;;;;;8.35;4.95;;;19.90;99.90;;;;;;4220678;28;20043;-89
2023/06/24 06:35:18;;;;;;;8.10;5.00;;;20.30;99.90;;;;;;4220462;28;20119;-87
2023/06/24 06:37:19;;;;;;;9.68;5.30;;;20.30;99.90;;;;;;4213049;28;20040;-88
2023/06/24 06:39:25;;;;;;;8.60;5.40;;;20.30;99.90;;;;;;4205538;28;20128;-88
2023/06/24 06:41:26;;;;;;;8.82;5.40;;;20.40;99.90;;;;;;4205274;28;20048;-88
2023/06/24 06:43:27;;;;;;;9.30;5.80;;;20.50;99.90;;;;;;4205925;28;20041;-88
2023/06/24 06:45:30;;;;;;;12.00;4.95;;;20.50;99.90;;;;;;4203338;28;20055;-88
2023/06/24 06:47:30;;;;;;;9.25;5.65;;;19.60;99.90;;;;;;4204807;28;20036;-87
2023/06/24 06:49:32;;;;;;;10.63;5.70;;;20.60;99.90;;;;;;4210433;28;20079;-88
2023/06/24 06:51:34;;;;;;;8.38;5.00;;;20.70;99.90;;;;;;4224329;28;20048;-88
2023/06/24 06:53:39;;;;;;;11.05;6.00;;;20.80;99.90;;;;;;4220970;28;20112;-88
2023/06/24 06:55:42;;;;;;;10.23;6.20;;;20.80;99.90;;;;;;4220429;28;20070;-88
2023/06/24 06:57:43;;;;;;;9.00;5.28;;;20.80;99.90;;;;;;4220902;28;20071;-87
2023/06/24 06:59:45;;;;;;;10.20;5.22;;;20.90;99.90;;;;;;4219953;28;20408;-88
2023/06/24 07:01:47;;;;;;;9.40;5.68;;;21.00;99.90;;;;;;4219435;28;20069;-87
2023/06/24 07:03:50;;;;;;;8.00;4.78;;;21.10;99.90;;;;;;4219372;28;20044;-88
2023/06/24 07:05:58;;;;;;;11.20;4.88;;;21.20;99.90;;;;;;4214923;28;20037;-88
2023/06/24 07:07:59;;;;;;;12.82;5.18;;;21.20;99.90;;;;;;4203217;28;20067;-87
2023/06/24 07:10:08;;;;;;;8.27;5.22;;;21.30;99.90;;;;;;4203838;28;20048;-87
2023/06/24 07:12:09;;;;;;;10.88;5.15;;;21.40;99.90;;;;;;4213150;28;20040;-89
2023/06/24 07:14:10;;;;;;;11.77;5.65;;;21.40;99.90;;;;;;4215215;28;20119;-91
2023/06/24 07:16:12;;;;;;;8.15;5.18;;;21.50;99.90;;;;;;4214156;28;20040;-89
2023/06/24 07:18:15;;;;;;;11.20;5.47;;;21.50;99.90;;;;;;4215872;28;20024;-91
2023/06/24 07:20:22;;;;;;;8.05;4.90;;;22.10;99.90;;;;;;4221791;28;20040;-90
2023/06/24 07:22:23;;;;;;;9.30;4.80;;;21.60;99.90;;;;;;4229682;28;20031;-89
2023/06/24 07:24:25;;;;;;;10.30;4.75;;;21.70;99.90;;;;;;4224025;28;20039;-90
2023/06/24 07:26:28;;;;;;;8.32;5.15;;;21.80;99.90;;;;;;4220543;28;20047;-91
2023/06/24 07:28:32;;;;;;;8.00;4.82;;;21.90;99.90;;;;;;4217278;28;20040;-90
2023/06/24 07:30:32;;;;;;;10.73;4.93;;;22.00;99.90;;;;;;4218433;28;20087;-88
2023/06/24 07:32:34;;;;;;;7.82;4.60;;;22.00;99.90;;;;;;4219159;28;20032;-91
2023/06/24 07:34:35;;;;;;;9.27;4.72;;;22.10;99.90;;;;;;4218789;28;20484;-89
2023/06/24 07:36:36;;;;;;;10.38;5.15;;;22.20;99.90;;;;;;4220527;28;20118;-92
2023/06/24 07:38:36;;;;;;;7.28;4.43;;;22.30;99.90;;;;;;4202338;28;20132;-90
2023/06/24 07:40:37;;;;;;;7.68;4.55;;;22.50;99.90;;;;;;4219502;28;20047;-89
2023/06/24 07:42:38;;;;;;;9.38;5.05;;;22.60;99.90;;;;;;4218449;28;20048;-91
2023/06/24 07:44:40;;;;;;;7.15;4.88;;;22.70;99.90;;;;;;4223021;28;20055;-90
2023/06/24 07:46:41;;;;;;;9.40;5.00;;;22.80;99.90;;;;;;4222534;28;20097;-90
2023/06/24 07:48:42;;;;;;;9.07;4.50;;;22.90;99.90;;;;;;4220530;28;20530;-89
2023/06/24 07:50:43;;;;;;;11.07;4.72;;;23.10;99.90;;;;;;4221677;28;20095;-89
2023/06/24 07:52:44;;;;;;;7.22;4.07;;;23.20;99.90;;;;;;4220978;28;20086;-90
2023/06/24 07:54:44;;;;;;;7.70;3.90;;;23.40;99.90;;;;;;4219213;28;20147;-90
2023/06/24 07:56:45;;;;;;;5.90;4.07;;;23.60;99.90;;;;;;4219404;28;20043;-91
2023/06/24 07:58:47;;;;;;;7.57;4.72;;;23.70;99.90;;;;;;4219131;28;20048;-90
2023/06/24 08:00:49;;;;;;;8.45;4.20;;;23.80;99.90;;;;;;4222182;28;20365;-90
2023/06/24 08:03:00;;;;;;;6.88;3.47;;;23.80;99.90;;;;;;4228601;28;20063;-90
2023/06/24 08:05:09;;;;;;;12.48;5.22;;;23.80;99.90;;;;;;4229742;28;20095;-89
2023/06/24 08:07:10;;;;;;;7.20;4.35;;;23.90;99.90;;;;;;4222080;28;20051;-89
2023/06/24 08:09:12;;;;;;;7.03;4.28;;;23.90;99.90;;;;;;4221092;28;20047;-90
2023/06/24 08:11:14;;;;;;;9.02;5.07;;;23.90;99.90;;;;;;4227783;28;20031;-89
2023/06/24 08:13:15;;;;;;;6.07;4.00;;;24.00;99.90;;;;;;4227972;28;20503;-88
2023/06/24 08:15:16;;;;;;;6.95;4.03;;;24.00;99.90;;;;;;4229604;28;20047;-90
2023/06/24 08:17:23;;;;;;;6.40;3.90;;;24.00;99.90;;;;;;4231300;28;20024;-91
2023/06/24 08:19:25;;;;;;;5.60;4.05;;;24.20;99.90;;;;;;4234729;28;20031;-89
2023/06/24 08:21:26;;;;;;;6.50;3.55;;;23.90;99.90;;;;;;4232191;28;20027;-90
2023/06/24 08:23:28;;;;;;;6.10;4.28;;;24.20;99.90;;;;;;4232863;28;20048;-91
2023/06/24 08:25:31;;;;;;;6.22;3.58;;;24.20;99.90;;;;;;4233823;28;20044;-91
2023/06/24 08:27:31;;;;;;;5.90;4.30;;;24.30;99.90;;;;;;4229072;28;20040;-90
2023/06/24 08:29:32;;;;;;;7.55;4.10;;;24.40;99.90;;;;;;4227368;28;20036;-91
2023/06/24 08:31:33;;;;;;;8.13;3.70;;;24.40;99.90;;;;;;4220389;28;20093;-91
2023/06/24 08:33:36;;;;;;;8.43;4.20;;;24.50;99.90;;;;;;4228088;28;20039;-90
2023/06/24 08:35:36;;;;;;;7.50;3.88;;;24.60;99.90;;;;;;4225847;28;20408;-88
2023/06/24 08:37:37;;;;;;;8.80;3.53;;;24.60;99.90;;;;;;4229522;28;20040;-88
2023/06/24 08:39:40;;;;;;;8.50;3.22;;;24.60;99.90;;;;;;4228280;28;20040;-89
2023/06/24 08:41:42;;;;;;;7.45;3.90;;;24.60;99.90;;;;;;4227677;28;20047;-90
2023/06/24 08:43:43;;;;;;;6.45;3.60;;;24.70;99.90;;;;;;4224154;28;20048;-91
2023/06/24 08:45:44;;;;;;;7.82;3.85;;;24.70;99.90;;;;;;4222849;28;20181;-90
2023/06/24 08:47:47;;;;;;;6.45;2.85;;;24.90;99.90;;;;;;4224771;28;20048;-90
2023/06/24 08:50:05;;;;;;;6.53;3.20;;;25.10;99.90;;;;;;4222870;28;20040;-90
2023/06/24 08:52:13;;;;;;;7.10;3.40;;;25.10;98.50;;;;;;4226522;28;20056;-88
2023/06/24 08:54:20;;;;;;;5.78;3.72;;;25.30;99.10;;;;;;4225396;28;20047;-89
2023/06/24 08:56:21;;;;;;;5.72;3.30;;;25.40;98.70;;;;;;4221025;28;20480;-88
2023/06/24 08:58:22;;;;;;;7.95;4.22;;;25.50;98.50;;;;;;4218939;28;20032;-89
2023/06/24 09:00:22;;;;;;;4.93;3.38;;;25.70;98.20;;;;;;4217866;28;20079;-89
2023/06/24 09:02:23;;;;;;;7.07;3.40;;;26.00;98.00;;;;;;4223850;28;20048;-89
2023/06/24 09:04:25;;;;;;;5.32;3.17;;;26.10;97.40;;;;;;4227089;28;20040;-90
2023/06/24 09:06:26;;;;;;;6.55;3.28;;;26.30;97.20;;;;;;4221306;28;20093;-87
2023/06/24 09:08:27;;;;;;;5.20;3.15;;;26.50;97.30;;;;;;4217021;28;20470;-86
2023/06/24 09:10:37;;;;;;;7.50;4.25;;;26.60;96.90;;;;;;4214036;28;20404;-85
2023/06/24 09:12:38;;;;;;;8.38;3.13;;;26.80;95.30;;;;;;4215637;28;20076;-86
2023/06/24 09:14:40;;;;;;;5.93;3.30;;;26.80;96.00;;;;;;4216796;28;20113;-86
2023/06/24 09:16:41;;;;;;;7.25;3.53;;;26.90;95.80;;;;;;4214670;28;20036;-87
2023/06/24 09:18:51;;;;;;;5.28;3.45;;;26.90;95.80;;;;;;4215393;28;20455;-86
2023/06/24 09:20:54;;;;;;;6.00;4.05;;;27.10;95.30;;;;;;4215148;28;20048;-86
2023/06/24 09:23:05;;;;;;;7.00;3.67;;;27.10;94.90;;;;;;4215565;28;20052;-85
2023/06/24 09:25:05;;;;;;;6.40;3.38;;;27.10;95.20;;;;;;4215618;28;20084;-85
2023/06/24 09:27:06;;;;;;;5.82;3.75;;;27.00;95.10;;;;;;4214894;28;20047;-86
2023/06/24 09:29:08;;;;;;;8.35;3.35;;;27.10;95.20;;;;;;4215490;28;20503;-86
2023/06/24 09:31:10;;;;;;;7.97;4.20;;;27.30;94.80;;;;;;4214279;28;20435;-86
2023/06/24 09:33:12;;;;;;;6.18;3.13;;;27.30;94.30;;;;;;4214675;28;20102;-87
2023/06/24 09:35:14;;;;;;;4.72;3.55;;;27.30;94.30;;;;;;4214866;28;20414;-86
2023/06/24 09:37:22;;;;;;;7.55;3.08;;;27.40;94.40;;;;;;4214416;28;20075;-86
2023/06/24 09:39:28;;;;;;;7.68;3.33;;;27.30;94.00;;;;;;4216776;28;20048;-86
2023/06/24 09:41:30;;;;;;;7.15;3.53;;;27.30;94.50;;;;;;4216048;28;20400;-84
2023/06/24 09:43:39;;;;;;;12.30;3.90;;;27.30;94.50;;;;;;4216376;28;20408;-83
2023/06/24 09:45:40;;;;;;;;;;;27.40;94.00;;;;;;4216812;28;20410;-84
2023/06/24 09:47:41;;;;;;;5.30;3.50;;;27.40;92.10;;;;;;4199039;28;20395;-84
2023/06/24 09:49:42;;;;;;;5.32;3.25;;;27.40;93.90;;;;;;4216675;28;20055;-84
2023/06/24 09:51:46;;;;;;;4.78;3.10;;;27.40;93.50;;;;;;4215044;28;20043;-83
2023/06/24 09:53:47;;;;;;;6.78;3.60;;;27.40;93.50;;;;;;4216527;28;20040;-85
2023/06/24 09:55:48;;;;;;;7.00;3.70;;;27.60;93.40;;;;;;4216483;28;20044;-85
2023/06/24 09:57:52;;;;;;;6.47;2.95;;;27.80;93.00;;;;;;4220458;28;20044;-84
2023/06/24 09:59:54;;;;;;;6.35;3.67;;;28.10;93.10;;;;;;4219002;28;20119;-84
2023/06/24 10:01:57;;;;;;;7.55;3.25;;;28.30;92.70;;;;;;4217818;28;20036;-85
2023/06/24 10:03:59;;;;;;;5.78;3.53;;;28.00;92.00;;;;;;4218756;28;20476;-86
2023/06/24 10:06:02;;;;;;;5.57;3.65;;;28.40;91.90;;;;;;4206994;28;20052;-85
2023/06/24 10:08:05;;;;;;;6.72;3.20;;;28.30;90.80;;;;;;4218804;28;20177;-85
2023/06/24 10:10:07;;;;;;;7.50;3.63;;;28.20;91.00;;;;;;4218302;28;20043;-85
2023/06/24 10:12:08;;;;;;;5.53;3.45;;;28.50;91.20;;;;;;4218941;28;20468;-85
2023/06/24 10:14:09;;;;;;;4.30;2.92;;;29.40;91.30;;;;;;4220015;28;20036;-85
2023/06/24 10:16:11;;;;;;;6.70;3.20;;;29.10;90.20;;;;;;4218323;28;20051;-85
2023/06/24 10:18:30;;;;;;;5.18;3.40;;;29.00;89.60;;;;;;4220277;28;20047;-85
2023/06/24 10:20:38;;;;;;;6.85;3.25;;;29.00;86.90;;;;;;4221963;28;20543;-86
2023/06/24 10:22:45;;;;;;;5.45;2.92;;;29.00;88.10;;;;;;4218836;28;20051;-83
2023/06/24 10:24:47;;;;;;;4.78;3.40;;;29.10;88.20;;;;;;4219384;28;20494;-84
2023/06/24 10:26:48;;;;;;;9.80;3.40;;;29.20;87.60;;;;;;4217813;28;20073;-84
2023/06/24 10:29:07;;;;;;;6.72;3.42;;;29.40;87.20;;;;;;4218771;28;20054;-85
2023/06/24 10:31:08;;;;;;;;;;;28.90;85.60;;;;;;4220000;28;20404;-85
2023/06/24 10:33:11;;;;;;;9.75;3.10;;;28.90;86.50;;;;;;4218688;28;19920;-85
2023/06/24 10:35:24;;;;;;;5.15;2.72;;;29.10;89.20;;;;;;4219046;28;20048;-85
2023/06/24 10:37:30;;;;;;;4.95;2.50;;;29.30;87.20;;;;;;4222349;28;20487;-85